sensor_id;sensor_type;location;lat;lon;timestamp;P1;durP1;ratioP1;P2;durP2;ratioP2
23676;SDS011;31493;49.058;12.190;2022-09-24T00:00:40;6.85;;;2.20;;
23676;SDS011;31493;49.058;12.190;2022-09-24T00:03:07;2.30;;;2.08;;
23676;SDS011;31493;49.058;12.190;2022-09-24T00:05:35;3.38;;;2.15;;
23676;SDS011;31493;49.058;12.190;2022-09-24T00:08:04;2.83;;;2.22;;
23676;SDS011;31493;49.058;12.190;2022-09-24T00:10:34;3.70;;;2.10;;
23676;SDS011;31493;49.058;12.190;2022-09-24T00:13:04;3.20;;;2.30;;
23676;SDS011;31493;49.058;12.190;2022-09-24T00:15:34;2.72;;;2.10;;
23676;SDS011;31493;49.058;12.190;2022-09-24T00:18:02;3.50;;;2.20;;
23676;SDS011;31493;49.058;12.190;2022-09-24T00:20:29;3.30;;;2.10;;
23676;SDS011;31493;49.058;12.190;2022-09-24T00:22:56;3.22;;;1.90;;
23676;SDS011;31493;49.058;12.190;2022-09-24T00:25:23;2.85;;;1.75;;
23676;SDS011;31493;49.058;12.190;2022-09-24T00:28:10;2.58;;;1.90;;
23676;SDS011;31493;49.058;12.190;2022-09-24T00:30:38;2.85;;;2.10;;
23676;SDS011;31493;49.058;12.190;2022-09-24T00:33:05;4.18;;;2.25;;
23676;SDS011;31493;49.058;12.190;2022-09-24T00:35:33;2.95;;;2.10;;
23676;SDS011;31493;49.058;12.190;2022-09-24T00:38:01;3.07;;;2.23;;
23676;SDS011;31493;49.058;12.190;2022-09-24T00:40:30;4.30;;;2.13;;
23676;SDS011;31493;49.058;12.190;2022-09-24T00:42:59;2.42;;;2.10;;
23676;SDS011;31493;49.058;12.190;2022-09-24T00:45:28;3.33;;;2.30;;
23676;SDS011;31493;49.058;12.190;2022-09-24T00:47:57;9.55;;;2.35;;
23676;SDS011;31493;49.058;12.190;2022-09-24T00:50:25;6.32;;;2.20;;
23676;SDS011;31493;49.058;12.190;2022-09-24T00:52:57;3.58;;;2.30;;
23676;SDS011;31493;49.058;12.190;2022-09-24T00:55:26;5.65;;;2.28;;
23676;SDS011;31493;49.058;12.190;2022-09-24T00:57:55;4.05;;;2.20;;
23676;SDS011;31493;49.058;12.190;2022-09-24T01:00:24;4.53;;;2.60;;
23676;SDS011;31493;49.058;12.190;2022-09-24T01:02:55;4.22;;;2.47;;
23676;SDS011;31493;49.058;12.190;2022-09-24T01:05:26;5.88;;;2.00;;
23676;SDS011;31493;49.058;12.190;2022-09-24T01:07:54;5.25;;;2.50;;
23676;SDS011;31493;49.058;12.190;2022-09-24T01:10:22;3.58;;;2.55;;
23676;SDS011;31493;49.058;12.190;2022-09-24T01:13:20;3.30;;;2.53;;
23676;SDS011;31493;49.058;12.190;2022-09-24T01:16:06;3.85;;;2.75;;
23676;SDS011;31493;49.058;12.190;2022-09-24T01:18:43;2.95;;;2.40;;
23676;SDS011;31493;49.058;12.190;2022-09-24T01:21:22;3.08;;;2.58;;
23676;SDS011;31493;49.058;12.190;2022-09-24T01:24:04;3.78;;;2.60;;
23676;SDS011;31493;49.058;12.190;2022-09-24T01:26:54;3.40;;;2.42;;
23676;SDS011;31493;49.058;12.190;2022-09-24T01:29:30;3.45;;;2.33;;
23676;SDS011;31493;49.058;12.190;2022-09-24T01:32:07;4.05;;;2.30;;
23676;SDS011;31493;49.058;12.190;2022-09-24T01:34:43;2.75;;;2.28;;
23676;SDS011;31493;49.058;12.190;2022-09-24T01:37:14;3.63;;;2.30;;
23676;SDS011;31493;49.058;12.190;2022-09-24T01:39:45;4.10;;;2.22;;
23676;SDS011;31493;49.058;12.190;2022-09-24T01:42:13;4.22;;;2.40;;
23676;SDS011;31493;49.058;12.190;2022-09-24T01:44:42;3.23;;;2.53;;
23676;SDS011;31493;49.058;12.190;2022-09-24T01:49:41;2.88;;;2.17;;
23676;SDS011;31493;49.058;12.190;2022-09-24T01:52:08;3.25;;;2.20;;
23676;SDS011;31493;49.058;12.190;2022-09-24T01:54:43;4.30;;;2.70;;
23676;SDS011;31493;49.058;12.190;2022-09-24T01:57:17;3.78;;;2.13;;
23676;SDS011;31493;49.058;12.190;2022-09-24T01:59:50;4.72;;;2.78;;
23676;SDS011;31493;49.058;12.190;2022-09-24T02:02:22;7.70;;;2.83;;
23676;SDS011;31493;49.058;12.190;2022-09-24T02:04:55;8.13;;;3.10;;
23676;SDS011;31493;49.058;12.190;2022-09-24T02:07:28;5.30;;;2.80;;
23676;SDS011;31493;49.058;12.190;2022-09-24T02:09:59;3.30;;;2.60;;
23676;SDS011;31493;49.058;12.190;2022-09-24T02:12:26;3.75;;;2.40;;
23676;SDS011;31493;49.058;12.190;2022-09-24T02:15:00;3.38;;;2.63;;
23676;SDS011;31493;49.058;12.190;2022-09-24T02:17:33;5.05;;;3.10;;
23676;SDS011;31493;49.058;12.190;2022-09-24T02:20:03;5.15;;;2.97;;
23676;SDS011;31493;49.058;12.190;2022-09-24T02:22:34;4.30;;;2.63;;
23676;SDS011;31493;49.058;12.190;2022-09-24T02:27:34;3.83;;;2.92;;
23676;SDS011;31493;49.058;12.190;2022-09-24T02:30:04;3.58;;;2.90;;
23676;SDS011;31493;49.058;12.190;2022-09-24T02:32:33;4.13;;;3.33;;
23676;SDS011;31493;49.058;12.190;2022-09-24T02:35:03;3.63;;;3.08;;
23676;SDS011;31493;49.058;12.190;2022-09-24T02:37:33;5.07;;;3.38;;
23676;SDS011;31493;49.058;12.190;2022-09-24T02:40:01;4.40;;;3.25;;
23676;SDS011;31493;49.058;12.190;2022-09-24T02:42:29;5.17;;;3.20;;
23676;SDS011;31493;49.058;12.190;2022-09-24T02:44:56;6.15;;;2.97;;
23676;SDS011;31493;49.058;12.190;2022-09-24T02:47:26;6.33;;;3.60;;
23676;SDS011;31493;49.058;12.190;2022-09-24T02:49:53;8.43;;;3.90;;
23676;SDS011;31493;49.058;12.190;2022-09-24T02:52:21;5.45;;;3.85;;
23676;SDS011;31493;49.058;12.190;2022-09-24T02:54:48;5.13;;;4.25;;
23676;SDS011;31493;49.058;12.190;2022-09-24T02:57:16;5.70;;;4.03;;
23676;SDS011;31493;49.058;12.190;2022-09-24T02:59:43;8.25;;;3.78;;
23676;SDS011;31493;49.058;12.190;2022-09-24T03:02:10;5.72;;;4.30;;
23676;SDS011;31493;49.058;12.190;2022-09-24T03:04:40;5.85;;;4.07;;
23676;SDS011;31493;49.058;12.190;2022-09-24T03:07:07;7.15;;;4.78;;
23676;SDS011;31493;49.058;12.190;2022-09-24T03:09:39;5.20;;;4.30;;
23676;SDS011;31493;49.058;12.190;2022-09-24T03:12:06;5.70;;;4.72;;
23676;SDS011;31493;49.058;12.190;2022-09-24T03:14:33;6.80;;;4.72;;
23676;SDS011;31493;49.058;12.190;2022-09-24T03:17:00;7.50;;;5.18;;
23676;SDS011;31493;49.058;12.190;2022-09-24T03:19:27;6.93;;;5.38;;
23676;SDS011;31493;49.058;12.190;2022-09-24T03:21:55;9.02;;;4.85;;
23676;SDS011;31493;49.058;12.190;2022-09-24T03:24:22;5.80;;;5.07;;
23676;SDS011;31493;49.058;12.190;2022-09-24T03:26:49;10.23;;;5.43;;
23676;SDS011;31493;49.058;12.190;2022-09-24T03:29:16;7.88;;;5.22;;
23676;SDS011;31493;49.058;12.190;2022-09-24T03:32:03;7.70;;;4.82;;
23676;SDS011;31493;49.058;12.190;2022-09-24T03:34:29;10.02;;;4.90;;
23676;SDS011;31493;49.058;12.190;2022-09-24T03:36:57;6.70;;;4.85;;
23676;SDS011;31493;49.058;12.190;2022-09-24T03:39:24;7.18;;;5.30;;
23676;SDS011;31493;49.058;12.190;2022-09-24T03:41:51;7.03;;;4.97;;
23676;SDS011;31493;49.058;12.190;2022-09-24T03:44:18;8.10;;;5.07;;
23676;SDS011;31493;49.058;12.190;2022-09-24T03:46:45;7.10;;;5.20;;
23676;SDS011;31493;49.058;12.190;2022-09-24T03:49:12;8.05;;;4.65;;
23676;SDS011;31493;49.058;12.190;2022-09-24T03:51:39;9.05;;;5.03;;
23676;SDS011;31493;49.058;12.190;2022-09-24T03:54:08;7.55;;;4.53;;
23676;SDS011;31493;49.058;12.190;2022-09-24T03:56:35;6.15;;;5.13;;
23676;SDS011;31493;49.058;12.190;2022-09-24T03:59:02;7.43;;;5.30;;
23676;SDS011;31493;49.058;12.190;2022-09-24T04:01:29;7.47;;;4.80;;
23676;SDS011;31493;49.058;12.190;2022-09-24T04:03:57;6.07;;;4.63;;
23676;SDS011;31493;49.058;12.190;2022-09-24T04:06:26;7.03;;;5.28;;
23676;SDS011;31493;49.058;12.190;2022-09-24T04:08:53;6.35;;;4.80;;
23676;SDS011;31493;49.058;12.190;2022-09-24T04:11:22;7.82;;;4.90;;
23676;SDS011;31493;49.058;12.190;2022-09-24T04:13:49;6.68;;;4.70;;
23676;SDS011;31493;49.058;12.190;2022-09-24T04:16:17;8.25;;;5.03;;
23676;SDS011;31493;49.058;12.190;2022-09-24T04:18:44;6.60;;;4.75;;
23676;SDS011;31493;49.058;12.190;2022-09-24T04:21:13;7.70;;;4.75;;
23676;SDS011;31493;49.058;12.190;2022-09-24T04:23:40;6.20;;;4.50;;
23676;SDS011;31493;49.058;12.190;2022-09-24T04:26:07;7.65;;;4.63;;
23676;SDS011;31493;49.058;12.190;2022-09-24T04:28:36;9.15;;;5.00;;
23676;SDS011;31493;49.058;12.190;2022-09-24T04:31:03;6.88;;;5.50;;
23676;SDS011;31493;49.058;12.190;2022-09-24T04:33:30;6.25;;;5.55;;
23676;SDS011;31493;49.058;12.190;2022-09-24T04:35:57;6.40;;;5.40;;
23676;SDS011;31493;49.058;12.190;2022-09-24T04:38:24;7.28;;;5.85;;
23676;SDS011;31493;49.058;12.190;2022-09-24T04:40:51;8.25;;;5.97;;
23676;SDS011;31493;49.058;12.190;2022-09-24T04:43:18;9.48;;;6.00;;
23676;SDS011;31493;49.058;12.190;2022-09-24T04:45:46;6.43;;;5.47;;
23676;SDS011;31493;49.058;12.190;2022-09-24T04:48:13;8.35;;;5.88;;
23676;SDS011;31493;49.058;12.190;2022-09-24T04:50:40;8.70;;;6.30;;
23676;SDS011;31493;49.058;12.190;2022-09-24T04:53:08;9.50;;;6.07;;
23676;SDS011;31493;49.058;12.190;2022-09-24T04:55:34;12.27;;;6.15;;
23676;SDS011;31493;49.058;12.190;2022-09-24T04:58:02;8.57;;;6.55;;
23676;SDS011;31493;49.058;12.190;2022-09-24T05:00:29;9.43;;;6.15;;
23676;SDS011;31493;49.058;12.190;2022-09-24T05:03:00;22.92;;;6.68;;
23676;SDS011;31493;49.058;12.190;2022-09-24T05:05:29;12.35;;;6.43;;
23676;SDS011;31493;49.058;12.190;2022-09-24T05:07:56;8.52;;;6.15;;
23676;SDS011;31493;49.058;12.190;2022-09-24T05:10:24;11.27;;;6.80;;
23676;SDS011;31493;49.058;12.190;2022-09-24T05:12:51;8.75;;;5.85;;
23676;SDS011;31493;49.058;12.190;2022-09-24T05:15:18;8.93;;;6.10;;
23676;SDS011;31493;49.058;12.190;2022-09-24T05:17:47;8.35;;;5.97;;
23676;SDS011;31493;49.058;12.190;2022-09-24T05:20:15;7.75;;;6.30;;
23676;SDS011;31493;49.058;12.190;2022-09-24T05:22:43;7.22;;;6.25;;
23676;SDS011;31493;49.058;12.190;2022-09-24T05:25:10;9.18;;;6.53;;
23676;SDS011;31493;49.058;12.190;2022-09-24T05:27:42;8.90;;;5.85;;
23676;SDS011;31493;49.058;12.190;2022-09-24T05:30:09;9.82;;;6.22;;
23676;SDS011;31493;49.058;12.190;2022-09-24T05:32:37;9.55;;;6.28;;
23676;SDS011;31493;49.058;12.190;2022-09-24T05:35:04;9.43;;;6.38;;
23676;SDS011;31493;49.058;12.190;2022-09-24T05:37:34;7.47;;;6.75;;
23676;SDS011;31493;49.058;12.190;2022-09-24T05:40:01;11.82;;;6.47;;
23676;SDS011;31493;49.058;12.190;2022-09-24T05:42:48;8.85;;;6.10;;
23676;SDS011;31493;49.058;12.190;2022-09-24T05:45:16;6.45;;;5.43;;
23676;SDS011;31493;49.058;12.190;2022-09-24T05:47:43;9.82;;;6.95;;
23676;SDS011;31493;49.058;12.190;2022-09-24T05:50:11;9.23;;;6.18;;
23676;SDS011;31493;49.058;12.190;2022-09-24T05:52:39;11.05;;;7.07;;
23676;SDS011;31493;49.058;12.190;2022-09-24T05:55:07;11.25;;;6.93;;
23676;SDS011;31493;49.058;12.190;2022-09-24T05:57:35;12.57;;;7.45;;
23676;SDS011;31493;49.058;12.190;2022-09-24T06:00:03;8.30;;;6.18;;
23676;SDS011;31493;49.058;12.190;2022-09-24T06:02:31;10.25;;;7.45;;
23676;SDS011;31493;49.058;12.190;2022-09-24T06:04:58;11.05;;;7.25;;
23676;SDS011;31493;49.058;12.190;2022-09-24T06:07:25;11.27;;;7.25;;
23676;SDS011;31493;49.058;12.190;2022-09-24T06:09:54;7.38;;;6.20;;
23676;SDS011;31493;49.058;12.190;2022-09-24T06:12:23;9.77;;;6.22;;
23676;SDS011;31493;49.058;12.190;2022-09-24T06:14:50;9.43;;;5.68;;
23676;SDS011;31493;49.058;12.190;2022-09-24T06:17:18;8.10;;;5.75;;
23676;SDS011;31493;49.058;12.190;2022-09-24T06:19:46;7.75;;;5.80;;
23676;SDS011;31493;49.058;12.190;2022-09-24T06:22:13;5.75;;;5.13;;
23676;SDS011;31493;49.058;12.190;2022-09-24T06:24:40;7.18;;;5.35;;
23676;SDS011;31493;49.058;12.190;2022-09-24T06:27:08;6.82;;;5.53;;
23676;SDS011;31493;49.058;12.190;2022-09-24T06:29:35;11.85;;;6.32;;
23676;SDS011;31493;49.058;12.190;2022-09-24T06:32:02;8.25;;;5.50;;
23676;SDS011;31493;49.058;12.190;2022-09-24T06:34:29;8.30;;;5.75;;
23676;SDS011;31493;49.058;12.190;2022-09-24T06:36:56;9.95;;;6.30;;
23676;SDS011;31493;49.058;12.190;2022-09-24T06:39:23;11.20;;;5.53;;
23676;SDS011;31493;49.058;12.190;2022-09-24T06:41:51;7.97;;;6.05;;
23676;SDS011;31493;49.058;12.190;2022-09-24T06:44:20;8.45;;;6.13;;
23676;SDS011;31493;49.058;12.190;2022-09-24T06:46:47;9.35;;;6.15;;
23676;SDS011;31493;49.058;12.190;2022-09-24T06:49:14;9.95;;;6.20;;
23676;SDS011;31493;49.058;12.190;2022-09-24T06:51:41;10.30;;;6.30;;
23676;SDS011;31493;49.058;12.190;2022-09-24T06:54:08;9.25;;;6.60;;
23676;SDS011;31493;49.058;12.190;2022-09-24T06:56:35;9.23;;;6.28;;
23676;SDS011;31493;49.058;12.190;2022-09-24T06:59:02;8.77;;;6.55;;
23676;SDS011;31493;49.058;12.190;2022-09-24T07:01:30;12.00;;;6.70;;
23676;SDS011;31493;49.058;12.190;2022-09-24T07:03:57;14.73;;;6.30;;
23676;SDS011;31493;49.058;12.190;2022-09-24T07:06:24;8.55;;;6.68;;
23676;SDS011;31493;49.058;12.190;2022-09-24T07:09:11;10.65;;;6.50;;
23676;SDS011;31493;49.058;12.190;2022-09-24T07:11:38;11.25;;;7.05;;
23676;SDS011;31493;49.058;12.190;2022-09-24T07:14:06;7.85;;;6.28;;
23676;SDS011;31493;49.058;12.190;2022-09-24T07:16:34;9.30;;;6.88;;
23676;SDS011;31493;49.058;12.190;2022-09-24T07:19:01;9.27;;;6.68;;
23676;SDS011;31493;49.058;12.190;2022-09-24T07:21:28;17.60;;;7.45;;
23676;SDS011;31493;49.058;12.190;2022-09-24T07:23:55;10.02;;;6.53;;
23676;SDS011;31493;49.058;12.190;2022-09-24T07:26:22;16.38;;;7.13;;
23676;SDS011;31493;49.058;12.190;2022-09-24T07:28:49;10.77;;;6.35;;
23676;SDS011;31493;49.058;12.190;2022-09-24T07:31:16;15.38;;;7.05;;
23676;SDS011;31493;49.058;12.190;2022-09-24T07:33:44;9.65;;;6.78;;
23676;SDS011;31493;49.058;12.190;2022-09-24T07:36:11;10.23;;;6.60;;
23676;SDS011;31493;49.058;12.190;2022-09-24T07:38:38;11.38;;;7.15;;
23676;SDS011;31493;49.058;12.190;2022-09-24T07:41:05;9.60;;;7.05;;
23676;SDS011;31493;49.058;12.190;2022-09-24T07:43:34;9.32;;;7.10;;
23676;SDS011;31493;49.058;12.190;2022-09-24T07:46:01;9.70;;;6.68;;
23676;SDS011;31493;49.058;12.190;2022-09-24T07:48:28;12.60;;;9.88;;
23676;SDS011;31493;49.058;12.190;2022-09-24T07:50:58;9.98;;;7.18;;
23676;SDS011;31493;49.058;12.190;2022-09-24T07:53:25;9.95;;;7.00;;
23676;SDS011;31493;49.058;12.190;2022-09-24T07:55:52;10.70;;;7.35;;
23676;SDS011;31493;49.058;12.190;2022-09-24T07:58:20;7.90;;;6.30;;
23676;SDS011;31493;49.058;12.190;2022-09-24T08:00:48;12.68;;;7.30;;
23676;SDS011;31493;49.058;12.190;2022-09-24T08:03:15;12.05;;;7.07;;
23676;SDS011;31493;49.058;12.190;2022-09-24T08:05:42;10.57;;;6.90;;
23676;SDS011;31493;49.058;12.190;2022-09-24T08:08:11;8.90;;;6.88;;
23676;SDS011;31493;49.058;12.190;2022-09-24T08:10:38;10.23;;;6.75;;
23676;SDS011;31493;49.058;12.190;2022-09-24T08:13:06;8.25;;;6.65;;
23676;SDS011;31493;49.058;12.190;2022-09-24T08:15:33;9.30;;;6.68;;
23676;SDS011;31493;49.058;12.190;2022-09-24T08:18:00;14.40;;;6.32;;
23676;SDS011;31493;49.058;12.190;2022-09-24T08:20:28;9.30;;;6.88;;
23676;SDS011;31493;49.058;12.190;2022-09-24T08:22:58;7.97;;;6.15;;
23676;SDS011;31493;49.058;12.190;2022-09-24T08:25:28;8.85;;;6.43;;
23676;SDS011;31493;49.058;12.190;2022-09-24T08:30:26;9.90;;;6.05;;
23676;SDS011;31493;49.058;12.190;2022-09-24T08:32:54;7.18;;;6.47;;
23676;SDS011;31493;49.058;12.190;2022-09-24T08:35:21;9.80;;;6.13;;
23676;SDS011;31493;49.058;12.190;2022-09-24T08:37:48;9.27;;;6.93;;
23676;SDS011;31493;49.058;12.190;2022-09-24T08:40:15;10.00;;;6.55;;
23676;SDS011;31493;49.058;12.190;2022-09-24T08:42:47;10.70;;;6.40;;
23676;SDS011;31493;49.058;12.190;2022-09-24T08:45:20;10.70;;;6.95;;
23676;SDS011;31493;49.058;12.190;2022-09-24T08:48:07;8.65;;;6.97;;
23676;SDS011;31493;49.058;12.190;2022-09-24T08:50:40;12.27;;;7.25;;
23676;SDS011;31493;49.058;12.190;2022-09-24T08:53:15;10.55;;;6.65;;
23676;SDS011;31493;49.058;12.190;2022-09-24T08:55:48;9.80;;;6.97;;
23676;SDS011;31493;49.058;12.190;2022-09-24T08:58:27;9.15;;;6.85;;
23676;SDS011;31493;49.058;12.190;2022-09-24T09:01:04;11.80;;;6.60;;
23676;SDS011;31493;49.058;12.190;2022-09-24T09:03:40;9.93;;;7.28;;
23676;SDS011;31493;49.058;12.190;2022-09-24T09:06:15;10.30;;;7.50;;
23676;SDS011;31493;49.058;12.190;2022-09-24T09:09:06;8.75;;;7.18;;
23676;SDS011;31493;49.058;12.190;2022-09-24T09:11:39;8.95;;;7.13;;
23676;SDS011;31493;49.058;12.190;2022-09-24T09:14:11;11.55;;;7.13;;
23676;SDS011;31493;49.058;12.190;2022-09-24T09:16:45;11.00;;;7.15;;
23676;SDS011;31493;49.058;12.190;2022-09-24T09:19:15;9.82;;;6.57;;
23676;SDS011;31493;49.058;12.190;2022-09-24T09:21:46;8.95;;;6.90;;
23676;SDS011;31493;49.058;12.190;2022-09-24T09:24:19;10.25;;;6.82;;
23676;SDS011;31493;49.058;12.190;2022-09-24T09:26:49;7.68;;;6.88;;
23676;SDS011;31493;49.058;12.190;2022-09-24T09:29:21;9.95;;;7.70;;
23676;SDS011;31493;49.058;12.190;2022-09-24T09:31:53;9.95;;;7.18;;
23676;SDS011;31493;49.058;12.190;2022-09-24T09:34:38;8.73;;;7.47;;
23676;SDS011;31493;49.058;12.190;2022-09-24T09:37:18;10.07;;;7.20;;
23676;SDS011;31493;49.058;12.190;2022-09-24T09:39:54;9.35;;;7.32;;
23676;SDS011;31493;49.058;12.190;2022-09-24T09:42:29;10.18;;;7.47;;
23676;SDS011;31493;49.058;12.190;2022-09-24T09:45:00;9.48;;;7.30;;
23676;SDS011;31493;49.058;12.190;2022-09-24T09:47:30;9.40;;;6.90;;
23676;SDS011;31493;49.058;12.190;2022-09-24T09:50:09;12.00;;;7.72;;
23676;SDS011;31493;49.058;12.190;2022-09-24T09:52:45;9.30;;;7.72;;
23676;SDS011;31493;49.058;12.190;2022-09-24T09:55:19;10.93;;;7.68;;
23676;SDS011;31493;49.058;12.190;2022-09-24T09:57:47;8.40;;;7.35;;
23676;SDS011;31493;49.058;12.190;2022-09-24T10:00:27;10.30;;;7.57;;
23676;SDS011;31493;49.058;12.190;2022-09-24T10:02:59;11.63;;;8.00;;
23676;SDS011;31493;49.058;12.190;2022-09-24T10:05:27;11.30;;;7.80;;
23676;SDS011;31493;49.058;12.190;2022-09-24T10:07:56;11.90;;;8.20;;
23676;SDS011;31493;49.058;12.190;2022-09-24T10:10:23;12.68;;;8.35;;
23676;SDS011;31493;49.058;12.190;2022-09-24T10:12:52;12.13;;;8.00;;
23676;SDS011;31493;49.058;12.190;2022-09-24T10:15:21;13.68;;;8.25;;
23676;SDS011;31493;49.058;12.190;2022-09-24T10:17:52;11.02;;;8.57;;
23676;SDS011;31493;49.058;12.190;2022-09-24T10:20:21;11.05;;;7.90;;
23676;SDS011;31493;49.058;12.190;2022-09-24T10:22:52;12.00;;;8.30;;
23676;SDS011;31493;49.058;12.190;2022-09-24T10:25:23;11.73;;;8.35;;
23676;SDS011;31493;49.058;12.190;2022-09-24T10:27:53;10.50;;;8.70;;
23676;SDS011;31493;49.058;12.190;2022-09-24T10:30:52;11.18;;;8.00;;
23676;SDS011;31493;49.058;12.190;2022-09-24T10:33:24;15.80;;;8.20;;
23676;SDS011;31493;49.058;12.190;2022-09-24T10:38:28;13.82;;;8.65;;
23676;SDS011;31493;49.058;12.190;2022-09-24T10:40:56;9.65;;;8.25;;
23676;SDS011;31493;49.058;12.190;2022-09-24T10:43:26;12.90;;;8.02;;
23676;SDS011;31493;49.058;12.190;2022-09-24T10:48:43;14.18;;;8.15;;
23676;SDS011;31493;49.058;12.190;2022-09-24T10:51:19;10.77;;;7.80;;
23676;SDS011;31493;49.058;12.190;2022-09-24T10:54:01;12.57;;;7.93;;
23676;SDS011;31493;49.058;12.190;2022-09-24T10:56:42;12.57;;;8.27;;
23676;SDS011;31493;49.058;12.190;2022-09-24T10:59:20;14.57;;;8.50;;
23676;SDS011;31493;49.058;12.190;2022-09-24T11:02:03;12.40;;;8.77;;
23676;SDS011;31493;49.058;12.190;2022-09-24T11:04:48;12.52;;;7.72;;
23676;SDS011;31493;49.058;12.190;2022-09-24T11:07:23;9.65;;;7.15;;
23676;SDS011;31493;49.058;12.190;2022-09-24T11:10:12;12.43;;;8.77;;
23676;SDS011;31493;49.058;12.190;2022-09-24T11:12:49;13.02;;;8.90;;
23676;SDS011;31493;49.058;12.190;2022-09-24T11:15:32;13.13;;;8.13;;
23676;SDS011;31493;49.058;12.190;2022-09-24T11:18:26;10.57;;;8.30;;
23676;SDS011;31493;49.058;12.190;2022-09-24T11:21:10;11.65;;;7.97;;
23676;SDS011;31493;49.058;12.190;2022-09-24T11:24:04;12.32;;;8.30;;
23676;SDS011;31493;49.058;12.190;2022-09-24T11:26:46;10.02;;;7.47;;
23676;SDS011;31493;49.058;12.190;2022-09-24T11:29:23;13.18;;;8.38;;
23676;SDS011;31493;49.058;12.190;2022-09-24T11:34:34;11.18;;;8.80;;
23676;SDS011;31493;49.058;12.190;2022-09-24T11:37:19;9.63;;;7.82;;
23676;SDS011;31493;49.058;12.190;2022-09-24T11:39:58;11.95;;;9.00;;
23676;SDS011;31493;49.058;12.190;2022-09-24T11:42:42;9.43;;;8.20;;
23676;SDS011;31493;49.058;12.190;2022-09-24T11:45:22;9.73;;;8.60;;
23676;SDS011;31493;49.058;12.190;2022-09-24T11:48:02;13.63;;;8.75;;
23676;SDS011;31493;49.058;12.190;2022-09-24T11:50:44;14.00;;;8.88;;
23676;SDS011;31493;49.058;12.190;2022-09-24T11:53:24;14.25;;;8.93;;
23676;SDS011;31493;49.058;12.190;2022-09-24T11:56:06;12.05;;;9.27;;
23676;SDS011;31493;49.058;12.190;2022-09-24T11:58:42;15.60;;;9.65;;
23676;SDS011;31493;49.058;12.190;2022-09-24T12:01:14;11.95;;;9.15;;
23676;SDS011;31493;49.058;12.190;2022-09-24T12:03:48;17.20;;;10.57;;
23676;SDS011;31493;49.058;12.190;2022-09-24T12:06:23;15.75;;;10.52;;
23676;SDS011;31493;49.058;12.190;2022-09-24T12:08:57;14.88;;;9.68;;
23676;SDS011;31493;49.058;12.190;2022-09-24T12:11:29;13.02;;;10.18;;
23676;SDS011;31493;49.058;12.190;2022-09-24T12:14:01;13.25;;;10.73;;
23676;SDS011;31493;49.058;12.190;2022-09-24T12:16:35;14.20;;;11.30;;
23676;SDS011;31493;49.058;12.190;2022-09-24T12:19:07;16.50;;;10.23;;
23676;SDS011;31493;49.058;12.190;2022-09-24T12:21:42;17.65;;;11.93;;
23676;SDS011;31493;49.058;12.190;2022-09-24T12:24:15;15.38;;;11.60;;
23676;SDS011;31493;49.058;12.190;2022-09-24T12:26:44;15.18;;;12.07;;
23676;SDS011;31493;49.058;12.190;2022-09-24T12:29:21;14.23;;;12.18;;
23676;SDS011;31493;49.058;12.190;2022-09-24T12:32:17;19.63;;;12.57;;
23676;SDS011;31493;49.058;12.190;2022-09-24T12:35:09;13.65;;;11.50;;
23676;SDS011;31493;49.058;12.190;2022-09-24T12:37:41;17.65;;;13.07;;
23676;SDS011;31493;49.058;12.190;2022-09-24T12:40:18;19.05;;;12.60;;
23676;SDS011;31493;49.058;12.190;2022-09-24T12:43:01;17.38;;;13.15;;
23676;SDS011;31493;49.058;12.190;2022-09-24T12:45:51;18.37;;;13.67;;
23676;SDS011;31493;49.058;12.190;2022-09-24T12:48:21;22.88;;;13.73;;
23676;SDS011;31493;49.058;12.190;2022-09-24T12:50:54;15.20;;;12.35;;
23676;SDS011;31493;49.058;12.190;2022-09-24T12:53:25;17.88;;;13.30;;
23676;SDS011;31493;49.058;12.190;2022-09-24T12:55:59;16.83;;;14.65;;
23676;SDS011;31493;49.058;12.190;2022-09-24T12:58:28;15.90;;;13.68;;
23676;SDS011;31493;49.058;12.190;2022-09-24T13:01:06;19.30;;;13.68;;
23676;SDS011;31493;49.058;12.190;2022-09-24T13:03:38;17.65;;;14.52;;
23676;SDS011;31493;49.058;12.190;2022-09-24T13:06:18;17.98;;;14.85;;
23676;SDS011;31493;49.058;12.190;2022-09-24T13:08:48;19.70;;;13.88;;
23676;SDS011;31493;49.058;12.190;2022-09-24T13:11:30;16.60;;;14.05;;
23676;SDS011;31493;49.058;12.190;2022-09-24T13:16:46;16.50;;;13.68;;
23676;SDS011;31493;49.058;12.190;2022-09-24T13:19:21;16.75;;;13.10;;
23676;SDS011;31493;49.058;12.190;2022-09-24T13:21:54;17.55;;;13.55;;
23676;SDS011;31493;49.058;12.190;2022-09-24T13:24:25;17.60;;;14.65;;
23676;SDS011;31493;49.058;12.190;2022-09-24T13:26:55;19.38;;;14.00;;
23676;SDS011;31493;49.058;12.190;2022-09-24T13:29:36;20.90;;;13.80;;
23676;SDS011;31493;49.058;12.190;2022-09-24T13:32:07;18.88;;;13.88;;
23676;SDS011;31493;49.058;12.190;2022-09-24T13:34:42;17.63;;;13.30;;
23676;SDS011;31493;49.058;12.190;2022-09-24T13:39:46;21.35;;;13.25;;
23676;SDS011;31493;49.058;12.190;2022-09-24T13:42:22;21.02;;;15.20;;
23676;SDS011;31493;49.058;12.190;2022-09-24T13:44:58;18.67;;;14.18;;
23676;SDS011;31493;49.058;12.190;2022-09-24T13:47:28;19.20;;;14.00;;
23676;SDS011;31493;49.058;12.190;2022-09-24T13:50:02;22.75;;;14.60;;
23676;SDS011;31493;49.058;12.190;2022-09-24T13:52:34;19.30;;;14.23;;
23676;SDS011;31493;49.058;12.190;2022-09-24T13:55:07;16.58;;;14.77;;
23676;SDS011;31493;49.058;12.190;2022-09-24T13:57:44;19.65;;;15.05;;
23676;SDS011;31493;49.058;12.190;2022-09-24T14:00:13;22.50;;;16.10;;
23676;SDS011;31493;49.058;12.190;2022-09-24T14:02:42;20.77;;;16.02;;
23676;SDS011;31493;49.058;12.190;2022-09-24T14:05:17;22.30;;;17.55;;
23676;SDS011;31493;49.058;12.190;2022-09-24T14:07:56;20.88;;;17.17;;
23676;SDS011;31493;49.058;12.190;2022-09-24T14:10:26;20.35;;;16.33;;
23676;SDS011;31493;49.058;12.190;2022-09-24T14:15:52;23.38;;;15.20;;
23676;SDS011;31493;49.058;12.190;2022-09-24T14:18:21;18.65;;;15.32;;
23676;SDS011;31493;49.058;12.190;2022-09-24T14:20:50;20.33;;;15.35;;
23676;SDS011;31493;49.058;12.190;2022-09-24T14:23:21;22.88;;;16.30;;
23676;SDS011;31493;49.058;12.190;2022-09-24T14:25:50;18.48;;;15.45;;
23676;SDS011;31493;49.058;12.190;2022-09-24T14:28:20;24.77;;;16.48;;
23676;SDS011;31493;49.058;12.190;2022-09-24T14:30:49;19.52;;;17.27;;
23676;SDS011;31493;49.058;12.190;2022-09-24T14:33:19;18.60;;;16.15;;
23676;SDS011;31493;49.058;12.190;2022-09-24T14:35:50;22.30;;;16.08;;
23676;SDS011;31493;49.058;12.190;2022-09-24T14:38:21;24.90;;;16.98;;
23676;SDS011;31493;49.058;12.190;2022-09-24T14:40:51;19.25;;;17.08;;
23676;SDS011;31493;49.058;12.190;2022-09-24T14:43:23;21.58;;;17.67;;
23676;SDS011;31493;49.058;12.190;2022-09-24T14:46:00;20.70;;;17.58;;
23676;SDS011;31493;49.058;12.190;2022-09-24T14:48:29;25.85;;;17.55;;
23676;SDS011;31493;49.058;12.190;2022-09-24T14:50:58;22.20;;;16.45;;
23676;SDS011;31493;49.058;12.190;2022-09-24T14:53:25;22.95;;;17.50;;
23676;SDS011;31493;49.058;12.190;2022-09-24T14:55:54;23.88;;;19.38;;
23676;SDS011;31493;49.058;12.190;2022-09-24T14:58:24;25.23;;;19.10;;
23676;SDS011;31493;49.058;12.190;2022-09-24T15:00:58;23.17;;;16.40;;
23676;SDS011;31493;49.058;12.190;2022-09-24T15:03:27;20.42;;;18.23;;
23676;SDS011;31493;49.058;12.190;2022-09-24T15:06:03;21.80;;;17.92;;
23676;SDS011;31493;49.058;12.190;2022-09-24T15:08:31;23.20;;;18.45;;
23676;SDS011;31493;49.058;12.190;2022-09-24T15:10:59;21.98;;;17.13;;
23676;SDS011;31493;49.058;12.190;2022-09-24T15:13:30;23.48;;;17.65;;